Time;durP1;ratioP1;P1;durP2;ratioP2;P2;SDS_P1;SDS_P2;PMS_P1;PMS_P2;Temp;Humidity;BMP_temperature;BMP_pressure;BME280_temperature;BME280_humidity;BME280_pressure;Samples;Min_cycle;Max_cycle;Signal;HPM_P1;HPM_P2
2024/02/09 00:01:10;;;;;;;24.38;15.52;;;;;;;6.17;100.00;98124.69;5062579;28;20032;-69
2024/02/09 00:03:36;;;;;;;22.15;16.08;;;;;;;6.33;100.00;98051.72;5061565;28;20033;-68
2024/02/09 00:06:01;;;;;;;24.70;15.55;;;;;;;5.79;100.00;98141.31;5057746;28;20025;-68
2024/02/09 00:08:27;;;;;;;25.40;16.60;;;;;;;5.92;100.00;98129.88;5055152;28;20120;-69
2024/02/09 00:10:53;;;;;;;23.90;16.33;;;;;;;6.11;100.00;98039.19;5056115;28;20035;-69
2024/02/09 00:13:18;;;;;;;24.38;16.02;;;;;;;5.43;100.00;97842.13;5056108;28;20040;-69
2024/02/09 00:15:48;;;;;;;25.33;17.30;;;;;;;5.56;100.00;97722.28;5060316;28;20483;-69
2024/02/09 00:18:18;;;;;;;23.35;15.95;;;;;;;6.70;100.00;97933.16;5062952;28;20067;-69
2024/02/09 00:20:45;;;;;;;27.15;16.60;;;;;;;6.26;100.00;97770.38;5059871;28;20025;-68
2024/02/09 00:23:14;;;;;;;26.35;16.95;;;;;;;5.71;100.00;97875.31;5059223;28;20414;-69
2024/02/09 00:25:40;;;;;;;27.13;17.45;;;;;;;6.28;100.00;97950.22;5058569;28;20035;-69
2024/02/09 00:28:08;;;;;;;26.27;17.85;;;;;;;6.13;100.00;97810.47;5060823;28;20495;-68
2024/02/09 00:30:38;;;;;;;28.13;18.30;;;;;;;6.22;100.00;97835.25;5059880;28;20048;-68
2024/02/09 00:33:10;;;;;;;25.13;18.13;;;;;;;6.32;100.00;97856.66;5054883;28;20032;-68
2024/02/09 00:35:39;;;;;;;30.00;19.70;;;;;;;6.83;100.00;97944.34;5057487;28;20029;-68
2024/02/09 00:38:06;;;;;;;27.25;19.63;;;;;;;6.52;100.00;98014.72;5062805;28;20064;-68
2024/02/09 00:40:35;;;;;;;28.45;19.38;;;;;;;6.55;100.00;98017.13;5055951;28;20036;-69
2024/02/09 00:43:02;;;;;;;26.58;18.58;;;;;;;6.40;100.00;98022.84;5059185;28;20033;-69
2024/02/09 00:45:31;;;;;;;27.90;19.00;;;;;;;5.84;100.00;97886.56;5064476;28;20039;-68
2024/02/09 00:48:00;;;;;;;29.75;18.95;;;;;;;6.22;100.00;98008.50;5056212;28;20036;-68
2024/02/09 00:50:27;;;;;;;27.30;18.80;;;;;;;5.88;100.00;97972.06;5059285;28;20430;-69
2024/02/09 00:52:53;;;;;;;26.98;18.10;;;;;;;6.33;100.00;97908.75;5055996;28;20032;-68
2024/02/09 00:55:19;;;;;;;29.20;18.25;;;;;;;6.30;100.00;98003.94;5062246;28;20045;-68
2024/02/09 00:57:45;;;;;;;29.30;18.30;;;;;;;5.93;100.00;97820.63;5054433;28;20426;-68
2024/02/09 01:00:15;;;;;;;26.38;17.13;;;;;;;5.44;100.00;97843.75;5058911;28;20035;-68
2024/02/09 01:02:41;;;;;;;29.02;17.38;;;;;;;5.91;100.00;97769.44;5060444;28;20039;-68
2024/02/09 01:05:13;;;;;;;26.88;18.27;;;;;;;5.96;100.00;97734.78;5058324;28;20114;-68
2024/02/09 01:07:40;;;;;;;24.75;17.67;;;;;;;6.30;100.00;97734.81;5059603;28;20458;-68
2024/02/09 01:10:06;;;;;;;23.30;15.80;;;;;;;6.78;100.00;97792.25;5062635;28;20028;-68
2024/02/09 02:45:20;;;;;;;29.77;18.90;;;;;;;5.13;100.00;97902.13;5056247;28;20029;-67
2024/02/09 03:04:18;;;;;;;28.67;18.77;;;;;;;4.91;100.00;97831.66;5060750;28;20033;-72
2024/02/09 03:04:20;;;;;;;29.38;17.50;;;;;;;5.01;100.00;98034.31;5056047;28;20063;-68
2024/02/09 03:06:45;;;;;;;32.97;17.50;;;;;;;5.19;100.00;98045.38;5063147;28;20048;-69
2024/02/09 03:09:11;;;;;;;33.53;19.20;;;;;;;4.36;100.00;97930.22;5060409;28;20065;-68
2024/02/09 03:11:36;;;;;;;31.65;19.08;;;;;;;4.48;100.00;97954.94;5064303;28;20041;-68
2024/02/09 03:14:02;;;;;;;31.35;19.33;;;;;;;5.03;100.00;98035.06;5058685;28;20803;-68
2024/02/09 03:16:27;;;;;;;30.50;18.58;;;;;;;4.61;100.00;98050.91;5061616;28;20033;-68
2024/02/09 03:18:53;;;;;;;32.33;18.15;;;;;;;4.83;100.00;97991.41;5069418;28;20491;-68
2024/02/09 03:21:25;;;;;;;27.65;18.45;;;;;;;5.18;100.00;97907.78;5056672;28;20040;-68
2024/02/09 03:23:53;;;;;;;29.95;18.60;;;;;;;4.90;100.00;97960.06;5056365;28;20388;-67
2024/02/09 03:26:22;;;;;;;28.55;18.48;;;;;;;4.06;100.00;97826.59;5060149;28;20025;-68
2024/02/09 03:28:51;;;;;;;29.15;18.17;;;;;;;4.60;100.00;97949.47;5058487;28;20036;-68
2024/02/09 03:31:17;;;;;;;31.27;19.60;;;;;;;4.69;100.00;97933.22;5052852;28;20027;-69
2024/02/09 03:33:42;;;;;;;30.40;18.70;;;;;;;5.04;100.00;97888.19;5057892;28;20104;-71
2024/02/09 03:36:09;;;;;;;33.35;18.58;;;;;;;4.52;100.00;97785.44;5061861;28;20484;-70
2024/02/09 03:38:35;;;;;;;32.90;19.83;;;;;;;4.60;100.00;97933.53;5060525;28;20024;-68
2024/02/09 03:41:01;;;;;;;31.02;19.45;;;;;;;4.63;100.00;97895.69;5057014;28;20094;-68
2024/02/09 03:43:26;;;;;;;32.92;20.55;;;;;;;3.89;100.00;97679.84;5063869;28;20083;-69
2024/02/09 03:45:52;;;;;;;29.60;20.25;;;;;;;5.03;100.00;97837.91;5056555;28;20460;-69
2024/02/09 03:48:17;;;;;;;29.15;20.13;;;;;;;4.90;100.00;97872.81;5064121;28;20032;-69
2024/02/09 03:50:43;;;;;;;30.75;18.75;;;;;;;4.62;100.00;97708.72;5058513;28;20021;-68
2024/02/09 03:53:08;;;;;;;34.22;19.77;;;;;;;5.45;100.00;97762.28;5060712;28;20102;-69
2024/02/09 03:55:33;;;;;;;31.90;19.58;;;;;;;5.07;100.00;97804.19;5057314;28;20041;-69
2024/02/09 03:57:59;;;;;;;28.95;19.77;;;;;;;5.01;100.00;97925.25;5063603;28;20108;-68
2024/02/09 04:00:24;;;;;;;26.50;18.88;;;;;;;5.36;100.00;97864.22;5057903;28;20029;-67
2024/02/09 04:02:50;;;;;;;29.95;19.58;;;;;;;4.74;100.00;97761.06;5058709;28;20086;-69
2024/02/09 04:05:17;;;;;;;32.70;19.20;;;;;;;4.97;100.00;97901.09;5060925;28;20475;-70
2024/02/09 04:07:42;;;;;;;30.92;19.73;;;;;;;4.40;100.00;97889.84;5052643;28;20045;-72
2024/02/09 04:10:09;;;;;;;30.20;19.27;;;;;;;5.32;100.00;97938.28;5055197;28;20029;-70
2024/02/09 04:12:34;;;;;;;34.38;20.33;;;;;;;4.91;100.00;97975.09;5058998;28;20052;-69
2024/02/09 04:15:00;;;;;;;32.03;19.58;;;;;;;4.27;100.00;97867.72;5060103;28;20078;-70
2024/02/09 04:17:27;;;;;;;29.58;18.80;;;;;;;4.98;100.00;97953.03;5056475;28;20086;-69
2024/02/09 04:19:53;;;;;;;34.42;22.88;;;;;;;5.12;100.00;97956.69;5058893;28;20111;-69
2024/02/09 04:22:18;;;;;;;31.17;19.17;;;;;;;5.86;100.00;97830.16;5059921;28;20120;-68
2024/02/09 04:24:46;;;;;;;37.97;23.48;;;;;;;4.48;100.00;98032.91;5055208;28;20475;-67
2024/02/09 04:27:12;;;;;;;35.95;23.02;;;;;;;4.63;100.00;97973.69;5057459;28;20063;-66
2024/02/09 04:29:38;;;;;;;39.35;23.67;;;;;;;3.80;100.00;97964.91;5060652;28;20044;-71
2024/02/09 04:32:06;;;;;;;37.22;22.42;;;;;;;4.56;100.00;98017.53;5058633;28;20029;-67
2024/02/09 04:34:32;;;;;;;37.83;22.63;;;;;;;3.77;100.00;97997.66;5055292;28;20040;-70
2024/02/09 04:36:59;;;;;;;76.93;47.90;;;;;;;3.84;100.00;97951.38;5060079;28;20730;-67
2024/02/09 04:39:25;;;;;;;59.95;38.95;;;;;;;4.84;100.00;98076.91;5058433;28;20100;-68
2024/02/09 04:41:51;;;;;;;64.85;42.92;;;;;;;4.94;100.00;98027.88;5053216;28;20479;-67
2024/02/09 04:44:20;;;;;;;70.00;43.33;;;;;;;4.66;100.00;98120.31;5054943;28;20041;-66
2024/02/09 04:46:46;;;;;;;51.80;33.58;;;;;;;4.79;100.00;98113.16;5052355;28;20040;-67
2024/02/09 04:49:11;;;;;;;47.75;27.40;;;;;;;4.71;100.00;98146.16;5053595;28;20100;-72
2024/02/09 04:51:41;;;;;;;43.63;27.33;;;;;;;4.52;100.00;98161.91;5054404;28;20150;-67
2024/02/09 04:54:14;;;;;;;48.30;31.15;;;;;;;3.99;100.00;98079.00;5052081;28;20067;-68
2024/02/09 04:56:40;;;;;;;87.43;55.35;;;;;;;4.57;100.00;98216.25;5052897;28;20522;-69
2024/02/09 04:59:10;;;;;;;84.68;53.20;;;;;;;4.13;100.00;98277.97;5051877;28;20025;-68
2024/02/09 05:01:41;;;;;;;77.63;47.15;;;;;;;3.51;100.00;98227.03;5053920;28;20079;-69
2024/02/09 05:04:14;;;;;;;77.05;49.80;;;;;;;4.20;100.00;98157.91;5053717;28;20549;-69
2024/02/09 05:06:40;;;;;;;68.70;43.40;;;;;;;3.40;100.00;98208.09;5050817;28;20052;-68
2024/02/09 05:09:11;;;;;;;73.15;45.22;;;;;;;4.20;100.00;98102.59;5054017;28;20060;-69
2024/02/09 05:11:41;;;;;;;70.95;45.88;;;;;;;4.36;100.00;98287.31;5053819;28;20028;-76
2024/02/09 05:14:07;;;;;;;63.45;40.22;;;;;;;3.89;100.00;98183.19;5051142;28;20114;-70
2024/02/09 05:16:33;;;;;;;67.45;41.28;;;;;;;4.42;100.00;98236.03;5058546;28;20506;-69
2024/02/09 05:19:01;;;;;;;72.28;40.15;;;;;;;4.37;100.00;98083.59;5049702;28;20028;-69
2024/02/09 05:21:29;;;;;;;69.07;37.53;;;;;;;4.52;100.00;98112.41;5051563;28;20083;-68
2024/02/09 05:23:54;;;;;;;67.70;40.85;;;;;;;4.46;100.00;98152.88;5052633;28;20056;-70
2024/02/09 05:26:19;;;;;;;82.65;51.33;;;;;;;4.67;100.00;98189.06;5051273;28;20480;-69
2024/02/09 05:28:48;;;;;;;88.43;48.95;;;;;;;4.38;100.00;98323.31;5053879;28;20078;-71
2024/02/09 05:31:23;;;;;;;85.07;51.45;;;;;;;4.60;100.00;98241.28;5052082;28;20060;-70
2024/02/09 05:33:50;;;;;;;90.80;59.40;;;;;;;3.69;100.00;98199.72;5053021;28;20029;-71
2024/02/09 05:36:19;;;;;;;83.55;54.30;;;;;;;3.99;100.00;98186.25;5052322;28;20124;-75
2024/02/09 05:38:49;;;;;;;107.35;74.35;;;;;;;3.73;100.00;98242.31;5054322;28;20055;-70
2024/02/09 05:41:19;;;;;;;103.80;64.50;;;;;;;4.84;100.00;98244.69;5056949;28;20119;-74
2024/02/09 05:43:47;;;;;;;80.75;54.83;;;;;;;5.68;100.00;98074.56;5056652;28;20110;-71
2024/02/09 05:46:16;;;;;;;99.35;66.28;;;;;;;4.73;100.00;98280.28;5057234;28;20087;-68
2024/02/09 05:48:46;;;;;;;72.75;47.05;;;;;;;4.44;100.00;98069.09;5057922;28;20529;-72
2024/02/09 05:51:13;;;;;;;68.20;44.58;;;;;;;4.33;100.00;98167.56;5053821;28;20553;-71
2024/02/09 05:53:42;;;;;;;69.93;43.53;;;;;;;3.66;100.00;98120.28;5056268;28;20113;-70
2024/02/09 05:56:34;;;;;;;77.25;48.22;;;;;;;4.73;100.00;98277.78;5056713;28;20077;-70
2024/02/09 05:59:04;;;;;;;65.45;40.92;;;;;;;5.15;100.00;98290.66;5052575;28;20509;-69
2024/02/09 06:01:30;;;;;;;87.05;52.10;;;;;;;6.14;100.00;98170.22;5058985;28;20124;-70
2024/02/09 06:03:56;;;;;;;84.88;47.50;;;;;;;6.26;100.00;98056.22;5059136;28;20029;-69
2024/02/09 06:06:22;;;;;;;71.07;41.97;;;;;;;7.44;100.00;98240.50;5059165;28;20062;-69
2024/02/09 06:08:49;;;;;;;91.40;51.63;;;;;;;6.27;100.00;98470.78;5067021;28;20081;-70
2024/02/09 06:11:18;;;;;;;100.75;59.03;;;;;;;6.07;100.00;98522.72;5064356;28;20038;-68
2024/02/09 06:13:46;;;;;;;95.07;54.13;;;;;;;5.97;100.00;98347.41;5060364;28;20036;-69
2024/02/09 06:16:13;;;;;;;99.40;53.67;;;;;;;7.58;100.00;98400.00;5058394;28;20118;-69
2024/02/09 06:18:39;;;;;;;94.30;52.17;;;;;;;8.29;100.00;98407.06;5056153;28;20037;-68
2024/02/09 06:21:05;;;;;;;75.57;40.25;;;;;;;8.10;100.00;98318.44;5051397;28;20140;-69
2024/02/09 06:23:34;;;;;;;60.83;35.05;;;;;;;7.99;100.00;98423.53;5059420;28;20120;-71
2024/02/09 06:26:00;;;;;;;50.85;30.08;;;;;;;8.77;100.00;98389.66;5059560;28;20033;-70
2024/02/09 06:28:25;;;;;;;54.92;32.50;;;;;;;8.60;100.00;98443.63;5059429;28;20033;-70
2024/02/09 06:30:51;;;;;;;45.03;27.08;;;;;;;8.48;100.00;98461.88;5058192;28;20502;-69
2024/02/09 06:33:19;;;;;;;106.55;33.95;;;;;;;8.69;100.00;98678.75;5055801;28;20028;-69
2024/02/09 06:35:45;;;;;;;66.05;29.35;;;;;;;9.38;100.00;98506.75;5057347;28;20041;-68
2024/02/09 06:38:11;;;;;;;64.47;29.10;;;;;;;9.22;100.00;98485.53;5059908;28;20129;-69
2024/02/09 06:40:38;;;;;;;56.60;28.23;;;;;;;9.68;100.00;98702.38;5059523;28;20523;-68
2024/02/09 06:43:04;;;;;;;57.63;25.25;;;;;;;8.19;100.00;98714.56;5061927;28;20036;-69
2024/02/09 06:45:29;;;;;;;71.13;31.90;;;;;;;7.26;100.00;98948.88;5062303;28;20055;-68
2024/02/09 06:47:55;;;;;;;54.75;28.00;;;;;;;6.48;100.00;98856.16;5064073;28;20472;-69
2024/02/09 06:50:21;;;;;;;45.28;25.23;;;;;;;7.23;100.00;98954.06;5061223;28;20464;-69
2024/02/09 06:52:50;;;;;;;51.58;28.88;;;;;;;7.36;100.00;98874.41;5059471;28;20079;-70
2024/02/09 06:55:17;;;;;;;51.65;29.73;;;;;;;8.21;100.00;98786.22;5060814;28;20049;-68
2024/02/09 06:57:44;;;;;;;43.10;27.25;;;;;;;7.86;100.00;98674.50;5058520;28;20025;-70
2024/02/09 07:00:13;;;;;;;53.63;28.85;;;;;;;8.71;100.00;98757.25;5061906;28;20052;-68
2024/02/09 07:02:39;;;;;;;40.67;25.60;;;;;;;8.07;100.00;98634.91;5060878;28;20503;-68
2024/02/09 07:05:14;;;;;;;33.65;23.73;;;;;;;8.21;100.00;98657.97;5063001;28;20036;-67
2024/02/09 07:07:45;;;;;;;46.67;33.83;;;;;;;7.86;100.00;98740.25;5060812;28;20051;-68
2024/02/09 07:10:16;;;;;;;42.00;26.13;;;;;;;8.92;100.00;98687.13;5060356;28;20435;-68
2024/02/09 07:12:41;;;;;;;50.33;35.92;;;;;;;8.68;100.00;98737.09;5056967;28;20067;-68
2024/02/09 07:15:07;;;;;;;44.15;31.10;;;;;;;8.24;100.00;98455.31;5058590;28;20396;-67
2024/02/09 07:17:34;;;;;;;51.75;35.72;;;;;;;9.54;100.00;98620.13;5062867;28;20062;-67
2024/02/09 07:20:03;;;;;;;58.75;40.65;;;;;;;9.85;100.00;98604.28;5062465;28;20502;-68
2024/02/09 07:22:29;;;;;;;56.05;38.67;;;;;;;9.71;100.00;98463.72;5065831;28;20037;-71
2024/02/09 07:24:55;;;;;;;45.80;32.45;;;;;;;9.95;100.00;98600.41;5058382;28;20033;-68
2024/02/09 07:27:20;;;;;;;40.78;31.77;;;;;;;10.12;100.00;98503.16;5061283;28;21319;-68
2024/02/09 07:29:46;;;;;;;78.07;44.08;;;;;;;9.77;100.00;98575.91;5055522;28;20029;-68
2024/02/09 07:32:12;;;;;;;70.47;48.60;;;;;;;9.24;100.00;98717.84;5059773;28;20408;-69
2024/02/09 07:34:38;;;;;;;39.72;29.08;;;;;;;9.91;100.00;98614.13;5064077;28;20438;-69
2024/02/09 07:37:03;;;;;;;39.45;26.52;;;;;;;9.71;100.00;98477.22;5058323;28;20032;-69
2024/02/09 07:39:31;;;;;;;39.38;27.48;;;;;;;9.18;100.00;98555.00;5062591;28;20032;-68
2024/02/09 07:41:57;;;;;;;46.47;35.70;;;;;;;9.70;100.00;98556.78;5059505;28;20033;-69
2024/02/09 07:44:23;;;;;;;51.30;37.85;;;;;;;10.12;100.00;98597.91;5055209;28;20036;-68
2024/02/09 07:46:48;;;;;;;41.38;31.20;;;;;;;10.55;100.00;98568.69;5059380;28;20029;-68
2024/02/09 07:49:15;;;;;;;36.42;24.67;;;;;;;10.08;100.00;98657.31;5045704;28;20037;-69
2024/02/09 07:51:41;;;;;;;33.38;23.40;;;;;;;10.09;100.00;98493.94;5058554;28;20025;-69
2024/02/09 07:54:06;;;;;;;28.05;19.67;;;;;;;10.40;100.00;98623.59;5055886;28;20087;-69
2024/02/09 07:56:33;;;;;;;28.58;18.52;;;;;;;9.75;100.00;98650.44;5060028;28;20134;-69
2024/02/09 07:58:58;;;;;;;22.83;17.48;;;;;;;10.09;100.00;98584.50;5059789;28;20114;-68
2024/02/09 08:01:24;;;;;;;36.97;24.38;;;;;;;10.18;100.00;98594.25;5061453;28;20487;-70
2024/02/09 08:03:54;;;;;;;54.08;31.75;;;;;;;8.30;100.00;98525.97;5057786;28;20507;-69
2024/02/09 08:06:21;;;;;;;35.10;20.27;;;;;;;9.76;100.00;98602.19;5061985;28;20055;-68
2024/02/09 08:08:52;;;;;;;31.08;20.13;;;;;;;9.92;100.00;98562.50;5057235;28;20025;-68
2024/02/09 08:11:22;;;;;;;30.42;20.27;;;;;;;9.71;100.00;98596.47;5057795;28;20029;-69
2024/02/09 08:13:51;;;;;;;26.45;18.80;;;;;;;10.33;100.00;98482.56;5062514;28;20036;-70
2024/02/09 08:16:18;;;;;;;26.98;19.60;;;;;;;9.47;100.00;98441.19;5057182;28;20033;-68
2024/02/09 08:18:43;;;;;;;30.25;19.40;;;;;;;10.14;100.00;98408.22;5058887;28;20039;-68
2024/02/09 08:21:09;;;;;;;26.15;19.33;;;;;;;10.70;100.00;98455.22;5059509;28;20032;-68
2024/02/09 08:23:34;;;;;;;28.70;18.08;;;;;;;10.51;100.00;98520.63;5062438;28;20040;-68
2024/02/09 08:26:00;;;;;;;25.42;15.70;;;;;;;9.38;100.00;98352.91;5057567;28;20025;-68
2024/02/09 08:28:25;;;;;;;27.85;14.85;;;;;;;10.27;100.00;98464.28;5058887;28;20041;-68
2024/02/09 08:30:51;;;;;;;19.63;13.98;;;;;;;10.54;100.00;98485.72;5060206;28;20032;-68
2024/02/09 08:33:17;;;;;;;22.13;14.40;;;;;;;10.71;100.00;98465.34;5061406;28;20482;-68
2024/02/09 08:35:44;;;;;;;21.88;14.82;;;;;;;11.53;100.00;98398.00;5063690;28;20025;-72
2024/02/09 08:38:09;;;;;;;20.45;12.55;;;;;;;10.77;100.00;98385.41;5061271;28;20067;-68
2024/02/09 08:40:35;;;;;;;25.30;13.20;;;;;;;11.62;100.00;98417.84;5061487;28;20048;-71
2024/02/09 08:43:00;;;;;;;21.80;14.00;;;;;;;10.77;100.00;98541.28;5066569;28;20060;-69
2024/02/09 08:45:27;;;;;;;23.63;13.50;;;;;;;10.62;100.00;98378.63;5058154;28;20032;-72
2024/02/09 08:47:52;;;;;;;20.20;14.20;;;;;;;10.35;100.00;98398.69;5059988;28;20415;-71
2024/02/09 08:50:17;;;;;;;26.38;15.02;;;;;;;11.05;100.00;98411.75;5064401;28;20039;-69
2024/02/09 08:52:43;;;;;;;24.60;14.57;;;;;;;11.14;100.00;98248.50;5059139;28;20032;-70
2024/02/09 08:55:09;;;;;;;24.13;14.93;;;;;;;11.72;100.00;98340.09;5061700;28;20040;-69
2024/02/09 08:57:35;;;;;;;25.58;14.82;;;;;;;11.81;100.00;98308.97;5054511;28;20500;-68
2024/02/09 09:00:04;;;;;;;23.75;14.15;;;;;;;12.02;100.00;98287.31;5053372;28;20071;-69
2024/02/09 09:02:29;;;;;;;21.63;14.18;;;;;;;11.85;100.00;98365.63;5056551;28;20049;-68
2024/02/09 09:04:54;;;;;;;25.17;13.55;;;;;;;11.48;100.00;98257.53;5055175;28;20426;-69
2024/02/09 09:07:20;;;;;;;23.48;13.30;;;;;;;11.73;100.00;98157.63;5057333;28;20403;-70
2024/02/09 09:09:45;;;;;;;25.42;13.35;;;;;;;12.05;100.00;98283.75;5057497;28;20115;-69
2024/02/09 09:12:11;;;;;;;22.05;13.77;;;;;;;11.96;100.00;98286.88;5054511;28;20025;-69
2024/02/09 09:14:36;;;;;;;26.42;14.13;;;;;;;11.83;100.00;98164.59;5058917;28;20123;-71
2024/02/09 09:17:02;;;;;;;25.60;12.27;;;;;;;12.54;100.00;98098.03;5055808;28;20025;-68
2024/02/09 09:19:28;;;;;;;23.45;12.75;;;;;;;11.60;100.00;98207.63;5055764;28;20186;-69
2024/02/09 09:21:53;;;;;;;21.77;12.27;;;;;;;12.17;100.00;98087.69;5052937;28;20524;-69
2024/02/09 09:24:19;;;;;;;20.40;11.02;;;;;;;12.44;100.00;98235.41;5065936;28;20039;-69
2024/02/09 09:26:45;;;;;;;17.80;11.40;;;;;;;12.51;100.00;98095.69;5058824;28;20034;-69
2024/02/09 09:29:12;;;;;;;22.20;10.70;;;;;;;13.10;100.00;98163.94;5055577;28;20029;-69
2024/02/09 09:31:38;;;;;;;26.95;11.40;;;;;;;12.06;100.00;98115.56;5060135;28;20028;-69
2024/02/09 09:34:04;;;;;;;24.33;10.25;;;;;;;13.11;100.00;98089.03;5060677;28;20039;-68
2024/02/09 09:36:33;;;;;;;23.55;11.75;;;;;;;13.32;100.00;98120.72;5057555;28;20066;-69
2024/02/09 09:39:02;;;;;;;27.00;15.52;;;;;;;12.58;100.00;98069.69;5060065;28;20146;-68
2024/02/09 09:41:27;;;;;;;25.88;13.15;;;;;;;13.36;100.00;98163.00;5052951;28;20037;-68
2024/02/09 09:43:53;;;;;;;21.83;10.82;;;;;;;13.42;100.00;98080.06;5056227;28;20032;-69
2024/02/09 09:46:22;;;;;;;23.27;11.82;;;;;;;12.62;100.00;98121.25;5060255;28;20117;-68
2024/02/09 09:48:55;;;;;;;24.05;11.75;;;;;;;12.79;100.00;98096.31;5061488;28;20115;-68
2024/02/09 09:51:22;;;;;;;24.55;11.75;;;;;;;13.36;100.00;98109.38;5054231;28;20025;-68
2024/02/09 09:53:52;;;;;;;19.33;10.93;;;;;;;13.26;100.00;98207.09;5055751;28;20020;-72
2024/02/09 09:56:19;;;;;;;23.95;11.15;;;;;;;12.87;100.00;98246.25;5058989;28;20051;-68
2024/02/09 09:58:45;;;;;;;24.23;10.75;;;;;;;12.78;100.00;98112.50;5057050;28;20560;-68
2024/02/09 10:01:11;;;;;;;20.95;10.52;;;;;;;13.59;100.00;98123.09;5058718;28;20039;-68
2024/02/09 10:03:38;;;;;;;19.67;9.90;;;;;;;13.72;100.00;98109.38;5064892;28;20505;-69
2024/02/09 10:06:04;;;;;;;21.27;10.73;;;;;;;13.91;100.00;98247.63;5054260;28;20032;-69
2024/02/09 10:08:31;;;;;;;21.40;10.38;;;;;;;13.48;100.00;98333.19;5054735;28;20059;-69
2024/02/09 10:10:57;;;;;;;21.40;10.15;;;;;;;13.91;100.00;98278.28;5059156;28;20021;-69
2024/02/09 10:13:26;;;;;;;17.17;9.48;;;;;;;13.16;100.00;98247.72;5057571;28;20063;-68
2024/02/09 10:15:52;;;;;;;22.35;10.10;;;;;;;13.72;100.00;98357.09;5050555;28;20562;-69
2024/02/09 10:18:18;;;;;;;18.80;10.10;;;;;;;13.72;100.00;98226.03;5058115;28;20029;-70
2024/02/09 10:20:48;;;;;;;17.73;10.10;;;;;;;14.40;100.00;98260.34;5060254;28;20016;-70
2024/02/09 10:23:17;;;;;;;22.23;12.32;;;;;;;14.41;100.00;98389.84;5054932;28;20044;-71
2024/02/09 10:25:43;;;;;;;28.23;16.67;;;;;;;14.35;100.00;98247.09;4358195;28;10021697;-69
2024/02/09 10:28:13;;;;;;;20.88;12.27;;;;;;;14.94;100.00;98362.22;5073040;28;20097;-71
2024/02/09 10:30:39;;;;;;;19.95;10.88;;;;;;;14.42;100.00;98290.94;5085707;28;20067;-70
2024/02/09 10:33:10;;;;;;;23.30;14.52;;;;;;;15.12;100.00;98382.19;5079709;28;20106;-70
2024/02/09 10:35:36;;;;;;;24.77;15.35;;;;;;;14.66;100.00;98355.69;5092276;28;20028;-70
2024/02/09 10:38:02;;;;;;;22.73;11.75;;;;;;;14.22;100.00;98393.72;5090514;28;20048;-71
2024/02/09 10:40:28;;;;;;;17.60;10.90;;;;;;;15.11;100.00;98424.09;5078511;28;20196;-72
2024/02/09 10:42:58;;;;;;;20.10;11.27;;;;;;;15.68;100.00;98390.88;5076075;28;20058;-70
2024/02/09 10:45:26;;;;;;;23.80;12.82;;;;;;;15.17;100.00;98485.06;5074235;28;20117;-69
2024/02/09 10:47:55;;;;;;;20.13;11.40;;;;;;;14.56;100.00;98396.44;5102872;28;20520;-71
2024/02/09 10:50:21;;;;;;;19.40;10.68;;;;;;;14.65;100.00;98466.59;5080752;28;20032;-70
2024/02/09 10:52:51;;;;;;;17.13;11.32;;;;;;;14.85;100.00;98468.59;5081738;28;20558;-70
2024/02/09 10:55:33;;;;;;;22.58;11.65;;;;;;;14.65;100.00;98443.59;5076455;28;20123;-70
2024/02/09 10:57:59;;;;;;;22.05;11.20;;;;;;;14.75;100.00;98495.75;5073021;28;20132;-70
2024/02/09 11:00:25;;;;;;;17.13;10.48;;;;;;;14.84;100.00;98502.78;5056227;28;20037;-70
2024/02/09 11:02:51;;;;;;;20.55;11.02;;;;;;;14.84;100.00;98496.84;5053257;28;20057;-69
2024/02/09 11:05:16;;;;;;;19.23;10.65;;;;;;;14.57;100.00;98530.25;5058099;28;20481;-70
2024/02/09 11:07:49;;;;;;;20.08;11.07;;;;;;;14.98;100.00;98445.53;5058488;28;20079;-69
2024/02/09 11:10:16;;;;;;;18.65;11.52;;;;;;;15.45;100.00;98451.47;5053972;28;20033;-70
2024/02/09 11:12:41;;;;;;;20.77;10.85;;;;;;;15.21;100.00;98468.56;5056844;28;20132;-70
2024/02/09 11:15:14;;;;;;;23.50;13.57;;;;;;;14.53;100.00;98480.22;5058111;28;20107;-70
2024/02/09 11:17:46;;;;;;;18.38;11.25;;;;;;;14.63;100.00;98460.78;5062943;28;20021;-73
2024/02/09 11:20:13;;;;;;;27.73;15.27;;;;;;;15.44;100.00;98518.19;5057761;28;20035;-69
2024/02/09 11:22:42;;;;;;;22.55;13.75;;;;;;;15.51;100.00;98489.44;5057830;28;20056;-70
2024/02/09 11:25:09;;;;;;;23.67;15.88;;;;;;;16.19;100.00;98476.72;5060661;28;20115;-69
2024/02/09 11:27:35;;;;;;;25.15;12.85;;;;;;;16.45;100.00;98441.41;5060254;28;20028;-70
2024/02/09 11:30:01;;;;;;;20.35;11.70;;;;;;;16.03;100.00;98549.75;5064452;28;20431;-73
2024/02/09 11:32:27;;;;;;;16.10;9.57;;;;;;;16.39;100.00;98549.59;5059411;28;20025;-70
2024/02/09 11:34:55;;;;;;;18.30;9.43;;;;;;;16.39;100.00;98558.13;5059273;28;20028;-71
2024/02/09 11:37:21;;;;;;;17.67;9.05;;;;;;;15.85;100.00;98639.03;5058890;28;20112;-69
2024/02/09 11:39:46;;;;;;;13.85;9.45;;;;;;;16.21;100.00;98595.38;5062346;28;20460;-73
2024/02/09 11:42:12;;;;;;;18.27;9.85;;;;;;;15.31;100.00;98496.91;5059305;28;20032;-70
2024/02/09 11:44:38;;;;;;;15.63;8.80;;;;;;;15.09;100.00;98635.84;5057973;28;20036;-69
2024/02/09 11:47:04;;;;;;;16.42;9.40;;;;;;;15.85;100.00;98668.97;5055045;28;20044;-69
2024/02/09 11:49:29;;;;;;;15.45;8.82;;;;;;;16.41;100.00;98673.44;5058876;28;20035;-69
2024/02/09 11:52:06;;;;;;;17.23;10.20;;;;;;;16.29;100.00;98589.69;5061140;28;20028;-69
2024/02/09 11:54:33;;;;;;;20.10;11.23;;;;;;;16.14;100.00;98824.94;5062399;28;20033;-70
2024/02/09 11:56:59;;;;;;;17.52;9.50;;;;;;;16.21;100.00;98805.66;5063131;28;20052;-69
2024/02/09 11:59:25;;;;;;;15.65;8.52;;;;;;;16.67;100.00;98749.38;5059451;28;20036;-69
2024/02/09 12:01:53;;;;;;;16.70;8.82;;;;;;;16.46;100.00;98714.94;5058893;28;20035;-71
2024/02/09 12:04:20;;;;;;;19.38;9.85;;;;;;;17.36;100.00;98815.28;5058445;28;20479;-70
2024/02/09 12:06:46;;;;;;;11.32;6.90;;;;;;;17.10;100.00;98953.31;5064995;28;20052;-71
2024/02/09 12:09:13;;;;;;;11.25;6.13;;;;;;;16.86;100.00;98913.13;5055306;28;20469;-69
2024/02/09 12:11:48;;;;;;;15.45;8.23;;;;;;;17.22;100.00;98949.88;5059919;28;20497;-69
2024/02/09 12:14:13;;;;;;;13.93;8.02;;;;;;;17.94;100.00;98964.31;5056597;28;20032;-72
2024/02/09 12:16:39;;;;;;;12.27;7.85;;;;;;;17.33;100.00;98888.25;5059956;28;20025;-69
2024/02/09 12:19:05;;;;;;;13.27;6.90;;;;;;;17.64;100.00;98966.56;5060547;28;20028;-69
2024/02/09 12:21:31;;;;;;;10.15;6.65;;;;;;;18.45;100.00;99075.41;5061171;28;20036;-72
2024/02/09 12:23:56;;;;;;;9.88;6.28;;;;;;;17.75;100.00;99048.03;5059930;28;20497;-69
2024/02/09 12:26:22;;;;;;;11.52;8.02;;;;;;;18.31;100.00;99015.56;5059423;28;20555;-71
2024/02/09 12:28:48;;;;;;;7.20;5.72;;;;;;;18.04;100.00;99113.63;5064442;28;20079;-70
2024/02/09 12:31:21;;;;;;;7.05;4.72;;;;;;;17.62;100.00;99209.22;5059780;28;20035;-70
2024/02/09 12:33:48;;;;;;;11.40;5.53;;;;;;;18.63;100.00;99176.19;5058790;28;20040;-71
2024/02/09 12:36:18;;;;;;;8.80;5.60;;;;;;;18.99;100.00;99055.75;5060700;28;20029;-70
2024/02/09 12:38:44;;;;;;;9.65;5.30;;;;;;;18.49;100.00;99233.84;5053998;28;20110;-70
2024/02/09 12:41:10;;;;;;;8.60;5.32;;;;;;;18.82;100.00;99200.47;5058695;28;20063;-69
2024/02/09 12:43:36;;;;;;;9.13;5.60;;;;;;;18.54;100.00;99285.03;5060181;28;20024;-69
2024/02/09 12:46:04;;;;;;;9.45;5.40;;;;;;;18.69;100.00;99157.72;5055629;28;20037;-70
2024/02/09 12:48:30;;;;;;;10.85;6.38;;;;;;;19.02;100.00;99210.13;5060273;28;20445;-70
2024/02/09 12:50:56;;;;;;;10.57;6.85;;;;;;;18.33;100.00;99292.47;5057453;28;20167;-70
2024/02/09 12:53:25;;;;;;;7.97;5.38;;;;;;;18.47;100.00;99269.19;5057281;28;20190;-70
2024/02/09 12:55:51;;;;;;;8.70;5.00;;;;;;;18.40;100.00;99278.22;5059587;28;20065;-70
2024/02/09 12:58:19;;;;;;;10.95;5.60;;;;;;;18.00;100.00;99269.13;5059179;28;20029;-70
2024/02/09 13:00:45;;;;;;;12.73;7.93;;;;;;;18.11;100.00;99277.72;5057994;28;20029;-70